createdAt,value
2023-09-22T00:03:52.380Z,26.69
2023-09-22T00:06:24.487Z,26.98
2023-09-22T00:09:00.378Z,27.02
2023-09-22T00:11:33.236Z,27.02
2023-09-22T00:14:02.717Z,27.09
2023-09-22T00:16:35.776Z,26.82
2023-09-22T00:19:14.752Z,26.88
2023-09-22T00:21:52.962Z,26.99
2023-09-22T00:24:37.756Z,26.99
2023-09-22T00:27:12.436Z,27.00
2023-09-22T00:29:42.242Z,27.11
2023-09-22T00:32:13.811Z,27.07
2023-09-22T00:34:50.178Z,27.13
2023-09-22T00:37:20.966Z,27.24
2023-09-22T00:39:53.656Z,27.28
2023-09-22T00:42:39.069Z,27.26
2023-09-22T00:45:10.076Z,27.30
2023-09-22T00:47:45.316Z,27.31
2023-09-22T00:50:16.702Z,27.39
2023-09-22T00:52:49.347Z,27.34
2023-09-22T00:55:28.920Z,27.35
2023-09-22T00:58:00.582Z,27.40
2023-09-22T01:00:37.160Z,27.39
2023-09-22T01:03:09.187Z,27.40
2023-09-22T01:05:39.823Z,27.38
2023-09-22T01:08:07.332Z,27.41
2023-09-22T01:10:38.701Z,27.42
2023-09-22T01:13:08.697Z,27.45
2023-09-22T01:15:42.803Z,27.44
2023-09-22T01:18:15.001Z,27.46
2023-09-22T01:20:47.619Z,27.46
2023-09-22T01:23:15.864Z,27.45
2023-09-22T01:25:54.196Z,27.36
2023-09-22T01:28:22.028Z,27.36
2023-09-22T01:30:55.951Z,27.19
2023-09-22T01:33:28.849Z,27.23
2023-09-22T01:35:56.581Z,27.08
2023-09-22T01:38:31.673Z,27.12
2023-09-22T01:41:02.542Z,27.24
2023-09-22T01:43:34.104Z,27.27
2023-09-22T01:46:08.781Z,27.30
2023-09-22T01:48:36.959Z,27.30
2023-09-22T01:51:04.556Z,27.34
2023-09-22T01:53:32.194Z,27.37
2023-09-22T01:56:04.562Z,27.34
2023-09-22T01:58:33.607Z,27.30
2023-09-22T02:01:01.289Z,27.16
2023-09-22T02:03:29.334Z,27.19
2023-09-22T02:05:56.753Z,27.22
2023-09-22T02:08:24.528Z,27.20
2023-09-22T02:10:51.767Z,27.16
2023-09-22T02:13:19.213Z,26.83
2023-09-22T02:15:46.572Z,26.77
2023-09-22T02:18:13.912Z,26.80
2023-09-22T02:20:43.253Z,26.86
2023-09-22T02:23:10.519Z,26.92
2023-09-22T02:25:37.681Z,26.81
2023-09-22T02:28:05.216Z,26.57
2023-09-22T02:30:33.251Z,26.66
2023-09-22T02:33:00.624Z,26.67
2023-09-22T02:35:27.994Z,26.65
2023-09-22T02:37:55.459Z,26.77
2023-09-22T02:40:22.682Z,26.76
2023-09-22T02:42:49.999Z,26.77
2023-09-22T02:45:17.458Z,26.71
2023-09-22T02:47:49.457Z,26.66
2023-09-22T02:50:20.147Z,26.71
2023-09-22T02:52:47.768Z,26.72
2023-09-22T02:55:17.531Z,26.60
2023-09-22T02:57:44.753Z,26.53
2023-09-22T03:03:21.095Z,26.37
2023-09-22T03:05:48.404Z,26.35
2023-09-22T03:08:15.968Z,26.33
2023-09-22T03:10:43.603Z,26.36
2023-09-22T03:13:11.010Z,26.34
2023-09-22T03:15:39.189Z,26.24
2023-09-22T03:18:06.566Z,26.20
2023-09-22T03:20:34.599Z,26.18
2023-09-22T03:23:01.737Z,26.31
2023-09-22T03:25:29.110Z,26.23
2023-09-22T03:27:56.402Z,26.30
2023-09-22T03:30:24.469Z,26.31
2023-09-22T03:32:54.457Z,26.27
2023-09-22T03:35:22.842Z,26.34
2023-09-22T03:37:50.575Z,26.26
2023-09-22T03:40:24.519Z,26.24
2023-09-22T03:42:52.233Z,26.21
2023-09-22T03:45:20.324Z,26.12
2023-09-22T03:47:48.548Z,26.20
2023-09-22T03:50:16.053Z,26.23
2023-09-22T03:52:43.915Z,26.23
2023-09-22T03:55:13.360Z,26.13
2023-09-22T03:57:41.235Z,26.08
2023-09-22T04:00:25.267Z,26.16
2023-09-22T04:02:53.471Z,26.16
2023-09-22T04:05:20.652Z,26.14
2023-09-22T04:07:47.905Z,26.15
2023-09-22T04:10:16.807Z,26.24
2023-09-22T04:12:44.636Z,26.13
2023-09-22T04:15:11.977Z,25.95
2023-09-22T04:17:42.484Z,25.98
2023-09-22T04:20:13.659Z,25.92
2023-09-22T04:22:45.117Z,26.09
2023-09-22T04:25:12.833Z,26.08
2023-09-22T04:27:48.586Z,26.08
2023-09-22T04:30:17.819Z,26.12
2023-09-22T04:32:45.886Z,26.19
2023-09-22T04:35:13.640Z,26.22
2023-09-22T04:37:42.103Z,26.22
2023-09-22T04:40:24.672Z,26.25
2023-09-22T04:42:53.290Z,26.30
2023-09-22T04:45:21.325Z,26.27
2023-09-22T04:47:49.300Z,26.18
2023-09-22T04:50:19.471Z,26.07
2023-09-22T04:52:50.840Z,26.03
2023-09-22T04:55:18.251Z,25.92
2023-09-22T04:57:45.541Z,25.94
2023-09-22T05:00:23.720Z,25.80
2023-09-22T05:02:51.482Z,25.82
2023-09-22T05:05:20.657Z,25.84
2023-09-22T05:07:48.010Z,25.79
2023-09-22T05:10:15.184Z,25.74
2023-09-22T05:12:42.360Z,25.81
2023-09-22T05:15:10.192Z,25.71
2023-09-22T05:17:37.353Z,25.65
2023-09-22T05:20:13.814Z,25.58
2023-09-22T05:22:41.815Z,25.57
2023-09-22T05:25:10.177Z,25.54
2023-09-22T05:27:37.446Z,25.12
2023-09-22T05:30:08.311Z,25.27
2023-09-22T05:32:35.799Z,25.32
2023-09-22T05:35:03.156Z,25.36
2023-09-22T05:37:32.789Z,25.31
2023-09-22T05:40:00.121Z,25.44
2023-09-22T05:42:27.591Z,25.29
2023-09-22T05:44:57.255Z,25.31
2023-09-22T05:47:27.120Z,25.33
2023-09-22T05:49:54.616Z,25.32
2023-09-22T05:52:21.890Z,25.37
2023-09-22T05:54:49.380Z,25.35
2023-09-22T05:57:16.619Z,25.37
2023-09-22T05:59:50.245Z,25.35
2023-09-22T06:02:17.593Z,25.39
2023-09-22T06:04:45.556Z,25.23
2023-09-22T06:07:15.632Z,25.21
2023-09-22T06:09:43.102Z,25.16
2023-09-22T06:12:10.419Z,25.20
2023-09-22T06:14:37.918Z,25.10
2023-09-22T06:17:08.120Z,24.85
2023-09-22T06:19:35.395Z,24.76
2023-09-22T06:22:02.808Z,24.68
2023-09-22T06:24:30.753Z,24.84
2023-09-22T06:26:57.923Z,24.86
2023-09-22T06:29:25.254Z,24.95
2023-09-22T06:31:52.647Z,24.81
2023-09-22T06:34:21.014Z,24.90
2023-09-22T06:36:48.380Z,24.93
2023-09-22T06:39:16.262Z,24.81
2023-09-22T06:41:43.569Z,24.89
2023-09-22T06:44:13.541Z,24.87
2023-09-22T06:46:41.230Z,24.88
2023-09-22T06:49:16.752Z,24.79
2023-09-22T06:51:47.051Z,24.68
2023-09-22T06:54:14.319Z,24.62
2023-09-22T06:56:50.019Z,24.53
2023-09-22T06:59:18.362Z,24.77
2023-09-22T07:01:45.686Z,24.65
2023-09-22T07:04:14.589Z,24.59
2023-09-22T07:06:43.309Z,24.48
2023-09-22T07:09:13.316Z,24.79
2023-09-22T07:11:42.292Z,24.78
2023-09-22T07:14:10.217Z,24.87
2023-09-22T07:16:38.503Z,24.60
2023-09-22T07:19:06.269Z,24.59
2023-09-22T07:21:33.699Z,24.81
2023-09-22T07:24:01.534Z,24.89
2023-09-22T07:26:31.254Z,24.68
2023-09-22T07:28:59.991Z,24.74
2023-09-22T07:31:32.627Z,24.81
2023-09-22T07:34:00.638Z,25.01
2023-09-22T07:36:28.281Z,25.10
2023-09-22T07:38:55.926Z,25.22
2023-09-22T07:41:23.124Z,25.24
2023-09-22T07:43:50.379Z,25.40
2023-09-22T07:46:17.654Z,25.37
2023-09-22T07:48:45.420Z,25.29
2023-09-22T07:51:12.922Z,25.31
2023-09-22T07:53:40.139Z,25.20
2023-09-22T07:56:07.758Z,25.45
2023-09-22T07:58:35.349Z,25.59
2023-09-22T08:01:08.359Z,25.65
2023-09-22T08:03:39.829Z,25.76
2023-09-22T08:06:08.964Z,25.90
2023-09-22T08:08:37.525Z,25.85
2023-09-22T08:11:06.075Z,26.29
2023-09-22T08:13:35.524Z,26.28
2023-09-22T08:16:07.712Z,26.56
2023-09-22T08:18:39.396Z,26.33
2023-09-22T08:21:06.869Z,26.86
2023-09-22T08:23:46.740Z,26.68
2023-09-22T08:26:19.405Z,26.95
2023-09-22T08:28:47.427Z,27.22
2023-09-22T08:31:16.264Z,27.03
2023-09-22T08:33:44.016Z,27.66
2023-09-22T08:36:11.448Z,27.65
2023-09-22T08:38:40.537Z,28.13
2023-09-22T08:41:08.579Z,28.38
2023-09-22T08:43:39.097Z,28.12
2023-09-22T08:46:07.003Z,28.68
2023-09-22T08:48:34.576Z,28.96
2023-09-22T08:51:02.105Z,28.80
2023-09-22T08:53:31.357Z,28.71
2023-09-22T08:55:58.619Z,28.79
2023-09-22T08:58:26.017Z,29.10
2023-09-22T09:00:59.073Z,28.99
2023-09-22T09:03:28.188Z,29.07
2023-09-22T09:06:07.834Z,29.22
2023-09-22T09:08:37.211Z,29.50
2023-09-22T09:11:12.178Z,29.40
2023-09-22T09:13:39.618Z,30.03
2023-09-22T09:16:09.554Z,30.20
2023-09-22T09:18:37.196Z,30.45
2023-09-22T09:21:11.483Z,30.30
2023-09-22T09:23:53.077Z,30.51
2023-09-22T09:26:33.019Z,30.82
2023-09-22T09:29:00.711Z,30.92
2023-09-22T09:31:47.821Z,30.82
2023-09-22T09:34:18.780Z,30.43
2023-09-22T09:36:46.346Z,30.62
2023-09-22T09:39:14.024Z,31.22
2023-09-22T09:41:45.063Z,30.63
2023-09-22T09:44:16.152Z,30.98
2023-09-22T09:46:45.670Z,31.26
2023-09-22T09:49:18.972Z,31.35
2023-09-22T09:51:49.531Z,30.88
2023-09-22T09:54:21.610Z,30.56
2023-09-22T09:56:51.437Z,31.28
2023-09-22T09:59:19.416Z,31.02
2023-09-22T10:01:47.799Z,31.26
2023-09-22T10:04:22.268Z,30.94
2023-09-22T10:06:52.719Z,31.15
2023-09-22T10:09:21.900Z,30.87
2023-09-22T10:11:52.181Z,30.70
2023-09-22T10:14:45.291Z,30.48
2023-09-22T10:17:26.839Z,31.27
2023-09-22T10:19:54.650Z,31.56
2023-09-22T10:22:23.585Z,31.43
2023-09-22T10:25:17.136Z,31.41
2023-09-22T10:28:03.974Z,31.29
2023-09-22T10:30:51.107Z,31.56
2023-09-22T10:33:25.555Z,32.08
2023-09-22T10:35:59.356Z,32.39
2023-09-22T10:38:27.749Z,32.44
2023-09-22T10:41:01.277Z,31.88
2023-09-22T10:43:37.758Z,31.66
2023-09-22T10:46:16.893Z,31.10
2023-09-22T10:48:45.804Z,32.22
2023-09-22T10:51:13.095Z,32.77
2023-09-22T10:53:41.806Z,32.48
2023-09-22T10:56:09.301Z,31.01
2023-09-22T10:58:37.427Z,31.37
2023-09-22T11:01:10.057Z,31.76
2023-09-22T11:03:37.457Z,32.57
2023-09-22T11:06:09.616Z,32.61
2023-09-22T11:08:53.311Z,32.13
2023-09-22T11:11:24.420Z,32.08
2023-09-22T11:13:54.040Z,32.54
2023-09-22T11:16:24.890Z,32.71
2023-09-22T11:19:06.531Z,32.61
2023-09-22T11:21:40.892Z,33.02
2023-09-22T11:24:09.510Z,33.17
2023-09-22T11:26:45.010Z,33.44
2023-09-22T11:29:18.126Z,33.32
2023-09-22T11:31:55.638Z,33.48
2023-09-22T11:34:24.994Z,33.52
2023-09-22T11:36:54.073Z,33.70
2023-09-22T11:39:32.535Z,34.15
2023-09-22T11:42:00.014Z,34.19
2023-09-22T11:44:27.294Z,33.42
2023-09-22T11:46:54.986Z,33.75
2023-09-22T11:49:24.623Z,33.98
2023-09-22T11:51:56.977Z,34.16
2023-09-22T11:54:26.623Z,33.67
2023-09-22T11:57:00.260Z,34.15
2023-09-22T11:59:31.999Z,33.99
2023-09-22T12:02:01.414Z,34.18
2023-09-22T12:04:30.736Z,33.88
2023-09-22T12:06:58.385Z,34.27
2023-09-22T12:09:29.248Z,34.13
2023-09-22T12:11:57.181Z,33.48
2023-09-22T12:14:24.975Z,33.29
2023-09-22T12:16:53.404Z,32.39
2023-09-22T12:19:21.789Z,32.83
2023-09-22T12:21:49.374Z,32.77
2023-09-22T12:24:19.768Z,33.11
2023-09-22T12:26:48.399Z,33.48
2023-09-22T12:29:17.616Z,32.76
2023-09-22T12:31:51.067Z,32.38
2023-09-22T12:34:19.090Z,32.73
2023-09-22T12:36:48.239Z,32.61
2023-09-22T12:39:17.560Z,32.44
2023-09-22T12:41:45.403Z,32.46
2023-09-22T12:44:20.275Z,32.01
2023-09-22T12:46:52.524Z,32.73
2023-09-22T12:49:31.769Z,32.58
2023-09-22T12:52:04.572Z,32.48
2023-09-22T12:54:44.211Z,31.61
2023-09-22T12:57:13.018Z,31.16
2023-09-22T12:59:40.695Z,30.90
2023-09-22T13:02:14.726Z,30.63
2023-09-22T13:04:47.651Z,30.48
2023-09-22T13:07:20.204Z,30.77
2023-09-22T13:09:55.079Z,31.45
2023-09-22T13:12:28.594Z,31.40
2023-09-22T13:14:57.662Z,32.23
2023-09-22T13:17:30.616Z,31.34
2023-09-22T13:20:01.862Z,32.11
2023-09-22T13:22:31.209Z,31.83
2023-09-22T13:24:59.128Z,32.19
2023-09-22T13:27:34.327Z,32.59
2023-09-22T13:30:04.568Z,32.15
2023-09-22T13:32:31.952Z,32.03
2023-09-22T13:35:06.906Z,31.07
2023-09-22T13:37:34.334Z,31.04
2023-09-22T13:40:01.762Z,31.66
2023-09-22T13:42:29.121Z,31.95
2023-09-22T13:44:56.362Z,32.26
2023-09-22T13:47:24.376Z,32.92
2023-09-22T13:49:53.248Z,32.06
2023-09-22T13:52:21.444Z,32.39
2023-09-22T13:54:50.771Z,32.13
2023-09-22T13:57:18.557Z,32.19
2023-09-22T13:59:45.926Z,32.07
2023-09-22T14:02:13.759Z,31.83
2023-09-22T14:04:42.486Z,32.02
2023-09-22T14:07:09.736Z,31.70
2023-09-22T14:09:36.969Z,31.68
2023-09-22T14:12:06.305Z,31.75
2023-09-22T14:14:34.851Z,31.93
2023-09-22T14:17:05.198Z,31.41
2023-09-22T14:19:38.236Z,31.45
2023-09-22T14:22:05.604Z,31.69
2023-09-22T14:24:33.323Z,31.64
2023-09-22T14:27:00.659Z,31.51
2023-09-22T14:29:28.126Z,31.54
2023-09-22T14:31:55.610Z,31.61
2023-09-22T14:34:23.025Z,32.01
2023-09-22T14:36:50.492Z,31.44
2023-09-22T14:39:17.779Z,31.66
2023-09-22T14:41:45.134Z,31.67
2023-09-22T14:44:13.690Z,31.94
2023-09-22T14:46:41.001Z,31.93
2023-09-22T14:49:08.374Z,31.86
2023-09-22T14:51:37.014Z,32.24
2023-09-22T14:54:06.250Z,31.98
2023-09-22T14:56:34.749Z,32.05
2023-09-22T14:59:02.190Z,31.61
2023-09-22T15:01:31.131Z,31.99
2023-09-22T15:03:59.056Z,31.70
2023-09-22T15:06:29.395Z,31.75
2023-09-22T15:09:01.437Z,32.01
2023-09-22T15:11:28.752Z,31.76
2023-09-22T15:13:56.069Z,31.58
2023-09-22T15:16:23.717Z,31.99
2023-09-22T15:18:51.110Z,31.33
2023-09-22T15:21:18.410Z,31.33
2023-09-22T15:23:45.828Z,31.78
2023-09-22T15:26:13.526Z,31.48
2023-09-22T15:28:41.665Z,31.91
2023-09-22T15:31:10.206Z,32.19
2023-09-22T15:33:37.557Z,32.14
2023-09-22T15:36:05.530Z,31.69
2023-09-22T15:38:36.057Z,31.60
2023-09-22T15:41:08.155Z,31.65
2023-09-22T15:43:36.614Z,31.55
2023-09-22T15:46:05.606Z,31.27
2023-09-22T15:48:34.317Z,31.16
2023-09-22T15:51:01.655Z,31.01
2023-09-22T15:53:34.764Z,31.19
2023-09-22T15:56:02.187Z,31.13
2023-09-22T15:58:29.705Z,31.31
2023-09-22T16:00:58.620Z,31.36
2023-09-22T16:03:26.134Z,31.34
2023-09-22T16:05:53.555Z,31.26
2023-09-22T16:08:21.021Z,31.07
2023-09-22T16:10:49.359Z,31.05
2023-09-22T16:13:28.138Z,30.86
2023-09-22T16:15:57.144Z,31.03
2023-09-22T16:18:24.432Z,30.94
2023-09-22T16:20:51.749Z,30.87
2023-09-22T16:23:19.373Z,30.69
2023-09-22T16:25:51.989Z,30.45
2023-09-22T16:28:21.773Z,30.87
2023-09-22T16:30:53.717Z,30.61
2023-09-22T16:33:21.099Z,30.82
2023-09-22T16:35:48.323Z,30.81
2023-09-22T16:38:15.648Z,30.77
2023-09-22T16:40:43.095Z,30.67
2023-09-22T16:43:10.442Z,30.73
2023-09-22T16:45:40.031Z,30.69
2023-09-22T16:48:08.879Z,30.65
2023-09-22T16:50:36.340Z,30.42
2023-09-22T16:53:03.735Z,29.86
2023-09-22T16:55:31.317Z,30.26
2023-09-22T16:57:58.685Z,30.32
2023-09-22T17:00:27.894Z,29.72
2023-09-22T17:02:58.429Z,29.20
2023-09-22T17:05:25.812Z,29.85
2023-09-22T17:07:52.988Z,29.93
2023-09-22T17:10:20.470Z,29.75
2023-09-22T17:12:48.654Z,29.38
2023-09-22T17:15:17.425Z,29.52
2023-09-22T17:17:44.783Z,29.64
2023-09-22T17:20:21.670Z,29.47
2023-09-22T17:22:49.496Z,29.50
2023-09-22T17:25:17.981Z,29.41
2023-09-22T17:27:48.087Z,29.32
2023-09-22T17:30:17.410Z,29.35
2023-09-22T17:32:45.490Z,29.43
2023-09-22T17:35:13.309Z,29.52
2023-09-22T17:37:40.770Z,29.52
2023-09-22T17:40:08.665Z,29.44
2023-09-22T17:42:37.231Z,28.89
2023-09-22T17:45:07.052Z,29.25
2023-09-22T17:47:35.361Z,29.23
2023-09-22T17:50:03.748Z,29.19
2023-09-22T17:52:34.359Z,29.24
2023-09-22T17:55:06.297Z,29.07
2023-09-22T17:57:34.875Z,28.89
2023-09-22T18:00:02.245Z,28.92
2023-09-22T18:02:40.347Z,28.87
2023-09-22T18:05:08.883Z,28.80
2023-09-22T18:07:36.636Z,28.93
2023-09-22T18:10:07.526Z,29.00
2023-09-22T18:12:36.182Z,29.13
2023-09-22T18:15:04.203Z,28.91
2023-09-22T18:17:34.619Z,28.94
2023-09-22T18:20:03.348Z,28.59
2023-09-22T18:22:30.777Z,28.27
2023-09-22T18:24:58.965Z,28.49
2023-09-22T18:27:27.773Z,28.48
2023-09-22T18:29:58.612Z,28.08
2023-09-22T18:32:27.448Z,28.35
2023-09-22T18:34:56.079Z,28.53
2023-09-22T18:37:27.094Z,28.22
2023-09-22T18:39:55.096Z,28.45
2023-09-22T18:42:24.361Z,28.30
2023-09-22T18:44:52.791Z,28.33
2023-09-22T18:47:22.490Z,27.83
2023-09-22T18:49:56.975Z,28.21
2023-09-22T18:52:27.770Z,28.26
2023-09-22T18:54:55.354Z,28.19
2023-09-22T18:57:22.658Z,28.04
2023-09-22T18:59:50.990Z,28.05
2023-09-22T19:02:18.219Z,27.51
2023-09-22T19:04:45.520Z,28.02
2023-09-22T19:07:14.876Z,28.17
2023-09-22T19:09:42.331Z,28.14
2023-09-22T19:12:10.087Z,28.19
2023-09-22T19:14:38.386Z,28.25
2023-09-22T19:17:07.430Z,28.19
2023-09-22T19:19:40.515Z,28.27
2023-09-22T19:22:08.777Z,28.04
2023-09-22T19:24:35.910Z,27.97
2023-09-22T19:27:03.723Z,28.10
2023-09-22T19:29:33.861Z,27.82
2023-09-22T19:32:04.578Z,28.06
2023-09-22T19:34:32.615Z,27.87
2023-09-22T19:37:03.384Z,27.82
2023-09-22T19:39:31.295Z,27.83
2023-09-22T19:42:01.607Z,27.95
2023-09-22T19:44:28.830Z,27.68
2023-09-22T19:46:56.261Z,27.82
2023-09-22T19:49:23.749Z,27.64
2023-09-22T19:51:50.872Z,27.59
2023-09-22T19:54:18.148Z,27.63
2023-09-22T19:56:45.290Z,27.73
2023-09-22T19:59:12.522Z,27.52
2023-09-22T20:01:39.814Z,27.62
2023-09-22T20:04:07.481Z,27.43
2023-09-22T20:06:35.006Z,27.63
2023-09-22T20:09:05.301Z,27.67
2023-09-22T20:11:34.125Z,27.56
2023-09-22T20:14:01.340Z,27.62
2023-09-22T20:16:30.366Z,27.54
2023-09-22T20:19:01.823Z,27.56
2023-09-22T20:21:29.141Z,27.53
2023-09-22T20:23:56.738Z,27.63
2023-09-22T20:26:24.398Z,27.57
2023-09-22T20:28:53.124Z,27.50
2023-09-22T20:31:20.515Z,27.42
2023-09-22T20:33:47.861Z,27.47
2023-09-22T20:36:15.822Z,27.54
2023-09-22T20:38:46.577Z,27.48
2023-09-22T20:41:14.359Z,27.46
2023-09-22T20:43:43.611Z,27.45
2023-09-22T20:46:15.169Z,27.34
2023-09-22T20:48:42.634Z,27.32
2023-09-22T20:51:13.487Z,27.40
2023-09-22T20:53:45.467Z,27.17
2023-09-22T20:56:13.363Z,27.28
2023-09-22T20:58:45.602Z,27.27
2023-09-22T21:01:17.186Z,27.16
2023-09-22T21:03:45.190Z,27.20
2023-09-22T21:06:13.091Z,27.25
2023-09-22T21:08:43.548Z,27.05
2023-09-22T21:11:11.103Z,27.10
2023-09-22T21:13:38.393Z,26.88
2023-09-22T21:16:05.928Z,26.97
2023-09-22T21:18:33.493Z,26.38
2023-09-22T21:21:05.174Z,26.66
2023-09-22T21:23:39.025Z,26.80
2023-09-22T21:26:07.523Z,26.65
2023-09-22T21:28:35.389Z,26.81
2023-09-22T21:31:04.672Z,26.58
2023-09-22T21:33:32.343Z,26.71
2023-09-22T21:36:03.500Z,26.62
2023-09-22T21:38:31.171Z,26.44
2023-09-22T21:41:11.020Z,26.38
2023-09-22T21:43:38.693Z,26.41
2023-09-22T21:46:08.057Z,26.40
2023-09-22T21:48:37.048Z,26.60
2023-09-22T21:51:08.528Z,26.48
2023-09-22T21:53:36.854Z,26.50
2023-09-22T21:56:05.577Z,26.22
2023-09-22T21:58:33.456Z,26.35
2023-09-22T22:01:00.808Z,26.45
2023-09-22T22:03:28.791Z,26.49
2023-09-22T22:05:59.093Z,26.43
2023-09-22T22:08:28.446Z,26.28
2023-09-22T22:10:57.244Z,26.37
2023-09-22T22:13:33.026Z,26.33
2023-09-22T22:16:00.626Z,26.33
2023-09-22T22:18:27.769Z,26.30
2023-09-22T22:20:56.338Z,26.24
2023-09-22T22:23:25.317Z,26.17
2023-09-22T22:25:57.499Z,25.95
2023-09-22T22:28:26.625Z,25.94
2023-09-22T22:30:55.128Z,26.10
2023-09-22T22:33:22.870Z,26.06
2023-09-22T22:35:50.804Z,25.94
2023-09-22T22:38:17.978Z,26.05
2023-09-22T22:40:49.137Z,26.04
2023-09-22T22:43:16.441Z,25.98
2023-09-22T22:45:44.837Z,25.86
2023-09-22T22:48:14.582Z,25.90
2023-09-22T22:50:43.860Z,26.02
2023-09-22T22:53:11.634Z,25.99
2023-09-22T22:55:39.006Z,26.03
2023-09-22T22:58:19.377Z,26.08
2023-09-22T23:00:50.047Z,26.15
2023-09-22T23:03:17.962Z,26.14
2023-09-22T23:05:46.811Z,26.16
2023-09-22T23:08:14.427Z,26.24
2023-09-22T23:10:56.163Z,26.24
2023-09-22T23:13:30.323Z,26.23
2023-09-22T23:16:01.064Z,26.22
2023-09-22T23:18:28.442Z,26.25
2023-09-22T23:20:58.880Z,26.26
2023-09-22T23:23:26.404Z,26.14
2023-09-22T23:25:53.853Z,26.22
2023-09-22T23:28:21.222Z,26.22
2023-09-22T23:30:49.593Z,26.22
2023-09-22T23:33:21.117Z,26.17
2023-09-22T23:35:48.528Z,26.16
2023-09-22T23:38:15.688Z,25.94
2023-09-22T23:40:43.749Z,25.95
2023-09-22T23:43:11.198Z,26.07
2023-09-22T23:45:40.898Z,26.00
2023-09-22T23:48:08.015Z,26.08
2023-09-22T23:50:37.090Z,26.12
2023-09-22T23:53:06.356Z,25.95
2023-09-22T23:55:35.193Z,25.93
2023-09-22T23:58:02.429Z,25.99
